This is the latest recevied weather packets stored in our database for station/object PY1LEO-13. If no packets are shown the sender has not sent any weather packets the latest 10 day(s).
| Time | Temp. | Humidity | Pressure | Rain* | Wind** | Luminosity | Snow |
|---|---|---|---|---|---|---|---|
| 1777817464 | 26.67° C | 61% | 1021.3 hPa | - | - | - | - |
| 1777817163 | 26.67° C | 61% | 1021.3 hPa | - | - | - | - |
| 1777816863 | 26.67° C | 61% | 1021.3 hPa | - | - | - | - |
| 1777816563 | 26.67° C | 62% | 1021.4 hPa | - | - | - | - |
| 1777816263 | 26.67° C | 62% | 1021.4 hPa | - | - | - | - |
| 1777815963 | 26.67° C | 64% | 1021.3 hPa | - | - | - | - |
| 1777815663 | 26.67° C | 65% | 1021.4 hPa | - | - | - | - |
| 1777815363 | 26.67° C | 66% | 1021.4 hPa | - | - | - | - |
| 1777815063 | 26.11° C | 68% | 1021.4 hPa | - | - | - | - |
| 1777814763 | 26.11° C | 67% | 1021.4 hPa | - | - | - | - |
| 1777814463 | 26.11° C | 67% | 1021.4 hPa | - | - | - | - |
| 1777814163 | 25° C | 74% | 1021.3 hPa | - | - | - | - |
| 1777813864 | 25.56° C | 72% | 1021.3 hPa | - | - | - | - |
| 1777813563 | 24.44° C | 73% | 1021.3 hPa | - | - | - | - |
| 1777813263 | 23.33° C | 78% | 1021.2 hPa | - | - | - | - |
| 1777812963 | 23.33° C | 78% | 1021.3 hPa | - | - | - | - |
| 1777812663 | 24.44° C | 74% | 1021.3 hPa | - | - | - | - |
| 1777812363 | 24.44° C | 76% | 1021.2 hPa | - | - | - | - |
| 1777812063 | 25° C | 74% | 1021.2 hPa | - | - | - | - |
| 1777811763 | 25.56° C | 71% | 1021.1 hPa | - | - | - | - |
| 1777811463 | 26.11° C | 72% | 1021.2 hPa | - | - | - | - |
| 1777811163 | 25° C | 73% | 1021 hPa | - | - | - | - |
| 1777810863 | 26.11° C | 68% | 1021 hPa | - | - | - | - |
| 1777810563 | 26.11° C | 68% | 1020.9 hPa | - | - | - | - |
| 1777810263 | 25.56° C | 70% | 1020.8 hPa | - | - | - | - |
* Rain since midnight (hover to see other rain measurements)
** Current wind speed in m/s (hover to see current wind gust speed)